createdAt,value
2023-02-11T00:00:50.027Z,-4.37
2023-02-11T00:04:51.656Z,-4.18
2023-02-11T00:08:54.951Z,-4.32
2023-02-11T00:12:56.458Z,-4.17
2023-02-11T00:16:57.890Z,-4.25
2023-02-11T00:20:59.282Z,-4.25
2023-02-11T00:25:02.016Z,-4.15
2023-02-11T00:29:03.982Z,-4.03
2023-02-11T00:33:05.311Z,-4.11
2023-02-11T00:37:08.417Z,-4.20
2023-02-11T00:41:11.276Z,-4.23
2023-02-11T00:45:12.786Z,-4.20
2023-02-11T00:49:14.317Z,-4.40
2023-02-11T00:53:15.653Z,-4.43
2023-02-11T00:57:18.379Z,-4.35
2023-02-11T01:01:20.066Z,-4.38
2023-02-11T01:05:21.511Z,-4.37
2023-02-11T01:09:22.922Z,-4.35
2023-02-11T01:13:26.184Z,-4.33
2023-02-11T01:17:27.565Z,-4.33
2023-02-11T01:21:28.933Z,-4.44
2023-02-11T01:25:30.293Z,-4.41
2023-02-11T01:29:33.073Z,-4.30
2023-02-11T01:33:34.464Z,-4.31
2023-02-11T01:37:35.942Z,-4.40
2023-02-11T01:41:37.558Z,-4.35
2023-02-11T01:45:53.526Z,-4.37
2023-02-11T01:49:56.570Z,-4.47
2023-02-11T01:53:58.452Z,-4.34
2023-02-11T01:58:02.412Z,-4.24
2023-02-11T02:02:08.449Z,-4.21
2023-02-11T02:06:15.436Z,-4.18
2023-02-11T02:10:18.827Z,-4.22
2023-02-11T02:14:20.296Z,-4.20
2023-02-11T02:18:28.291Z,-4.15
2023-02-11T02:22:48.090Z,-4.07
2023-02-11T02:27:13.877Z,-3.98
2023-02-11T02:31:25.913Z,-4.03
2023-02-11T02:35:36.171Z,-4.02
2023-02-11T02:39:37.848Z,-4.14
2023-02-11T02:43:40.954Z,-4.20
2023-02-11T02:47:42.495Z,-4.23
2023-02-11T02:52:08.188Z,-4.18
2023-02-11T02:56:13.773Z,-4.12
2023-02-11T03:00:21.701Z,-3.99
2023-02-11T03:04:26.268Z,-3.97
2023-02-11T03:08:30.501Z,-3.90
2023-02-11T03:12:34.875Z,-3.82
2023-02-11T03:16:36.777Z,-3.66
2023-02-11T03:20:40.441Z,-3.67
2023-02-11T03:24:42.024Z,-3.67
2023-02-11T03:28:49.454Z,-3.55
2023-02-11T03:32:51.989Z,-3.59
2023-02-11T03:36:56.350Z,-3.50
2023-02-11T03:40:58.625Z,-3.50
2023-02-11T03:45:03.588Z,-3.50
2023-02-11T03:49:09.102Z,-3.45
2023-02-11T03:53:11.915Z,-3.32
2023-02-11T03:57:13.297Z,-3.31
2023-02-11T04:01:16.160Z,-3.34
2023-02-11T04:05:17.687Z,-3.24
2023-02-11T04:09:19.006Z,-3.12
2023-02-11T04:13:20.445Z,-3.14
2023-02-11T04:17:23.245Z,-3.20
2023-02-11T04:21:24.667Z,-3.17
2023-02-11T04:25:26.033Z,-3.01
2023-02-11T04:29:27.492Z,-2.95
2023-02-11T04:33:30.227Z,-2.77
2023-02-11T04:37:31.645Z,-2.73
2023-02-11T04:41:32.992Z,-2.66
2023-02-11T04:45:34.410Z,-2.57
2023-02-11T04:49:37.206Z,-2.47
2023-02-11T04:53:38.571Z,-2.37
2023-02-11T04:57:39.988Z,-2.12
2023-02-11T05:01:41.361Z,-2.17
2023-02-11T05:05:44.151Z,-2.03
2023-02-11T05:09:45.561Z,-1.92
2023-02-11T05:13:47.236Z,-1.99
2023-02-11T05:17:48.596Z,-1.94
2023-02-11T05:22:02.233Z,-1.91
2023-02-11T05:26:04.425Z,-1.90
2023-02-11T05:30:06.368Z,-1.87
2023-02-11T05:34:07.799Z,-1.85
2023-02-11T05:38:10.548Z,-1.67
2023-02-11T05:42:11.888Z,-1.64
2023-02-11T05:46:13.443Z,-1.48
2023-02-11T05:50:14.897Z,-1.47
2023-02-11T05:54:17.640Z,-1.77
2023-02-11T05:58:19.020Z,-1.58
2023-02-11T06:02:20.379Z,-1.43
2023-02-11T06:06:21.739Z,-1.43
2023-02-11T06:10:24.481Z,-1.48
2023-02-11T06:14:25.830Z,-1.48
2023-02-11T06:18:27.203Z,-1.42
2023-02-11T06:22:28.735Z,-1.33
2023-02-11T06:26:32.473Z,-1.51
2023-02-11T06:30:33.876Z,-1.56
2023-02-11T06:34:35.528Z,-1.51
2023-02-11T06:38:36.876Z,-1.60
2023-02-11T06:42:39.738Z,-1.51
2023-02-11T06:46:41.151Z,-1.49
2023-02-11T06:50:42.513Z,-1.48
2023-02-11T06:54:43.865Z,-1.29
2023-02-11T06:58:46.610Z,-1.36
2023-02-11T07:02:48.027Z,-1.35
2023-02-11T07:06:49.489Z,-1.31
2023-02-11T07:10:50.846Z,-1.13
2023-02-11T07:14:53.550Z,-1.05
2023-02-11T07:18:54.900Z,-0.92
2023-02-11T07:22:56.247Z,-1.06
2023-02-11T07:26:57.680Z,-1.02
2023-02-11T07:31:05.518Z,-0.91
2023-02-11T07:35:07.216Z,-0.54
2023-02-11T07:39:08.597Z,-0.27
2023-02-11T07:43:09.944Z,-0.08
2023-02-11T07:47:12.662Z,0.18
2023-02-11T07:51:14.665Z,0.33
2023-02-11T07:55:16.067Z,0.35
2023-02-11T07:59:17.425Z,0.32
2023-02-11T08:03:20.152Z,0.34
2023-02-11T08:07:21.499Z,0.42
2023-02-11T08:11:23.719Z,0.60
2023-02-11T08:15:25.117Z,0.63
2023-02-11T08:19:27.814Z,0.82
2023-02-11T08:23:29.204Z,1.03
2023-02-11T08:27:30.609Z,1.15
2023-02-11T08:31:35.201Z,1.23
2023-02-11T08:35:38.022Z,1.54
2023-02-11T08:39:39.378Z,1.76
2023-02-11T08:43:41.191Z,2.06
2023-02-11T08:47:42.532Z,1.79
2023-02-11T08:51:45.391Z,1.72
2023-02-11T08:55:48.795Z,1.89
2023-02-11T08:59:50.304Z,1.56
2023-02-11T09:03:51.741Z,1.45
2023-02-11T09:07:54.496Z,1.43
2023-02-11T09:11:56.076Z,1.31
2023-02-11T09:15:57.694Z,1.28
2023-02-11T09:19:59.135Z,1.58
2023-02-11T09:24:01.902Z,1.75
2023-02-11T09:28:03.427Z,1.84
2023-02-11T09:32:07.250Z,1.84
2023-02-11T09:36:09.967Z,1.75
2023-02-11T09:40:12.842Z,1.28
2023-02-11T09:44:17.560Z,1.70
2023-02-11T09:48:20.180Z,1.76
2023-02-11T09:52:29.827Z,1.72
2023-02-11T09:56:32.583Z,1.83
2023-02-11T10:00:37.075Z,1.91
2023-02-11T10:04:46.154Z,1.96
2023-02-11T10:08:52.774Z,2.19
2023-02-11T10:13:01.608Z,2.39
2023-02-11T10:17:12.266Z,2.59
2023-02-11T10:21:19.583Z,2.77
2023-02-11T10:25:22.153Z,2.69
2023-02-11T10:29:33.415Z,2.76
2023-02-11T10:33:39.251Z,2.53
2023-02-11T10:37:42.423Z,2.63
2023-02-11T10:41:47.367Z,2.66
2023-02-11T10:45:51.256Z,2.78
2023-02-11T10:49:52.593Z,2.64
2023-02-11T10:54:13.555Z,2.74
2023-02-11T10:58:23.142Z,2.82
2023-02-11T11:02:28.113Z,2.81
2023-02-11T11:06:30.673Z,2.80
2023-02-11T11:10:36.686Z,2.64
2023-02-11T11:14:38.042Z,2.75
2023-02-11T11:18:41.855Z,2.73
2023-02-11T11:22:43.547Z,2.69
2023-02-11T11:26:46.152Z,2.83
2023-02-11T11:30:47.749Z,2.78
2023-02-11T11:34:51.410Z,3.06
2023-02-11T11:38:55.598Z,3.35
2023-02-11T11:43:03.294Z,3.64
2023-02-11T11:47:28.759Z,3.75
2023-02-11T11:51:32.315Z,3.92
2023-02-11T11:55:37.900Z,4.04
2023-02-11T11:59:39.357Z,4.39
2023-02-11T12:03:55.599Z,4.60
2023-02-11T12:08:03.788Z,4.85
2023-02-11T12:12:10.357Z,4.85
2023-02-11T12:16:17.515Z,5.13
2023-02-11T12:20:30.738Z,5.23
2023-02-11T12:24:45.030Z,5.13
2023-02-11T12:28:53.651Z,5.10
2023-02-11T12:32:59.895Z,5.08
2023-02-11T12:37:06.199Z,5.04
2023-02-11T12:41:23.607Z,4.94
2023-02-11T12:45:31.267Z,4.97
2023-02-11T12:49:39.321Z,5.13
2023-02-11T12:53:49.846Z,5.11
2023-02-11T12:57:54.910Z,5.09
2023-02-11T13:01:57.610Z,5.15
2023-02-11T13:06:01.807Z,5.25
2023-02-11T13:10:05.723Z,4.95
2023-02-11T13:14:12.590Z,5.16
2023-02-11T13:18:25.153Z,5.28
2023-02-11T13:22:28.637Z,5.23
2023-02-11T13:26:33.381Z,5.07
2023-02-11T13:30:37.202Z,5.05
2023-02-11T13:34:59.555Z,4.88
2023-02-11T13:39:02.403Z,5.14
2023-02-11T13:43:04.983Z,5.08
2023-02-11T13:47:07.898Z,5.11
2023-02-11T13:51:10.883Z,5.21
2023-02-11T13:55:19.901Z,5.35
2023-02-11T13:59:36.117Z,5.61
2023-02-11T14:03:39.322Z,5.64
2023-02-11T14:08:00.702Z,5.84
2023-02-11T14:12:22.616Z,5.93
2023-02-11T14:16:36.918Z,6.00
2023-02-11T14:20:43.008Z,6.15
2023-02-11T14:24:49.671Z,6.05
2023-02-11T14:28:52.322Z,6.14
2023-02-11T14:33:06.876Z,6.11
2023-02-11T14:37:14.269Z,6.15
2023-02-11T14:41:18.230Z,6.05
2023-02-11T14:45:21.256Z,6.02
2023-02-11T14:49:25.003Z,5.98
2023-02-11T14:53:28.818Z,5.85
2023-02-11T14:57:30.140Z,5.64
2023-02-11T15:01:32.624Z,5.74
2023-02-11T15:05:34.611Z,5.68
2023-02-11T15:09:40.801Z,5.59
2023-02-11T15:13:42.598Z,5.39
2023-02-11T15:17:44.267Z,5.11
2023-02-11T15:21:46.086Z,4.87
2023-02-11T15:25:48.787Z,4.62
2023-02-11T15:29:50.531Z,4.67
2023-02-11T15:33:52.486Z,4.60
2023-02-11T15:37:54.272Z,4.65
2023-02-11T15:41:57.202Z,4.35
2023-02-11T15:45:59.892Z,4.23
2023-02-11T15:50:01.622Z,3.98
2023-02-11T15:54:04.141Z,3.87
2023-02-11T15:58:09.302Z,3.72
2023-02-11T16:02:15.924Z,3.65
2023-02-11T16:06:21.310Z,3.62
2023-02-11T16:10:24.310Z,3.41
2023-02-11T16:14:30.250Z,2.98
2023-02-11T16:18:39.655Z,2.98
2023-02-11T16:22:45.833Z,3.03
2023-02-11T16:26:48.727Z,3.05
2023-02-11T16:30:53.858Z,2.87
2023-02-11T16:34:56.501Z,2.75
2023-02-11T16:38:57.889Z,2.76
2023-02-11T16:42:59.226Z,2.65
2023-02-11T16:47:02.872Z,2.53
2023-02-11T16:51:04.397Z,2.45
2023-02-11T16:55:06.159Z,2.53
2023-02-11T16:59:07.527Z,2.41
2023-02-11T17:03:15.094Z,2.28
2023-02-11T17:07:16.412Z,2.34
2023-02-11T17:11:17.727Z,2.33
2023-02-11T17:15:19.061Z,2.34
2023-02-11T17:19:21.762Z,2.27
2023-02-11T17:23:23.097Z,2.20
2023-02-11T17:27:24.425Z,2.27
2023-02-11T17:31:25.841Z,2.12
2023-02-11T17:35:28.600Z,2.06
2023-02-11T17:39:29.976Z,2.01
2023-02-11T17:43:31.565Z,2.03
2023-02-11T17:47:33.011Z,2.07
2023-02-11T17:51:36.666Z,1.95
2023-02-11T17:55:37.994Z,1.99
2023-02-11T17:59:39.548Z,2.02
2023-02-11T18:03:40.930Z,2.09
2023-02-11T18:07:43.625Z,2.07
2023-02-11T18:11:45.276Z,2.02
2023-02-11T18:15:46.700Z,2.01
2023-02-11T18:19:48.458Z,1.92
2023-02-11T18:23:51.216Z,1.94
2023-02-11T18:27:52.550Z,1.97
2023-02-11T18:31:54.799Z,1.93
2023-02-11T18:35:56.170Z,2.06
2023-02-11T18:39:58.864Z,1.78
2023-02-11T18:44:00.208Z,1.82
2023-02-11T18:48:01.536Z,1.97
2023-02-11T18:52:03.531Z,1.91
2023-02-11T18:56:10.277Z,1.95
2023-02-11T19:00:12.223Z,1.85
2023-02-11T19:04:13.677Z,1.74
2023-02-11T19:08:15.353Z,1.86
2023-02-11T19:12:18.021Z,1.88
2023-02-11T19:16:19.401Z,1.85
2023-02-11T19:20:20.820Z,1.91
2023-02-11T19:24:22.855Z,1.82
2023-02-11T19:28:25.608Z,1.81
2023-02-11T19:32:27.018Z,1.79
2023-02-11T19:36:28.356Z,1.75
2023-02-11T19:40:29.724Z,1.84
2023-02-11T19:44:32.408Z,1.75
2023-02-11T19:48:33.785Z,1.84
2023-02-11T19:52:37.228Z,1.95
2023-02-11T19:56:38.583Z,1.85
2023-02-11T20:00:41.642Z,1.84
2023-02-11T20:04:42.976Z,1.85
2023-02-11T20:08:44.305Z,1.79
2023-02-11T20:12:45.641Z,2.00
2023-02-11T20:16:49.992Z,1.84
2023-02-11T20:20:51.618Z,1.71
2023-02-11T20:24:52.939Z,1.72
2023-02-11T20:28:55.100Z,1.70
2023-02-11T20:32:57.801Z,1.70
2023-02-11T20:36:59.127Z,1.73
2023-02-11T20:41:02.556Z,1.63
2023-02-11T20:45:04.110Z,1.65
2023-02-11T20:49:07.104Z,1.54
2023-02-11T20:53:08.437Z,1.66
2023-02-11T20:57:09.770Z,1.70
2023-02-11T21:01:12.508Z,1.70
2023-02-11T21:05:15.186Z,1.83
2023-02-11T21:09:17.714Z,1.80
2023-02-11T21:13:19.092Z,1.82
2023-02-11T21:17:20.703Z,1.80
2023-02-11T21:21:23.559Z,1.90
2023-02-11T21:25:24.919Z,1.81
2023-02-11T21:29:26.266Z,1.81
2023-02-11T21:33:28.242Z,1.84
2023-02-11T21:37:31.165Z,1.75
2023-02-11T21:41:32.813Z,1.66
2023-02-11T21:45:34.151Z,1.52
2023-02-11T21:49:35.468Z,1.54
2023-02-11T21:53:38.520Z,1.45
2023-02-11T21:57:39.919Z,1.62
2023-02-11T22:01:41.262Z,1.66
2023-02-11T22:05:42.617Z,1.71
2023-02-11T22:09:45.288Z,1.60
2023-02-11T22:13:46.883Z,1.66
2023-02-11T22:17:48.216Z,1.75
2023-02-11T22:21:49.740Z,1.77
2023-02-11T22:25:52.735Z,1.72
2023-02-11T22:29:54.246Z,1.72
2023-02-11T22:33:55.856Z,1.76
2023-02-11T22:37:57.199Z,1.81
2023-02-11T22:41:59.892Z,1.76
2023-02-11T22:46:01.704Z,1.76
2023-02-11T22:50:03.058Z,2.02
2023-02-11T22:54:05.291Z,1.95
2023-02-11T22:58:07.982Z,1.99
2023-02-11T23:02:09.428Z,1.93
2023-02-11T23:06:11.390Z,2.03
2023-02-11T23:10:12.715Z,1.92
2023-02-11T23:14:15.413Z,1.99
2023-02-11T23:18:16.760Z,1.98
2023-02-11T23:22:18.099Z,1.85
2023-02-11T23:26:19.486Z,1.83
2023-02-11T23:30:22.183Z,1.77
2023-02-11T23:34:23.658Z,1.82
2023-02-11T23:38:25.090Z,1.78
2023-02-11T23:42:26.482Z,1.93
2023-02-11T23:46:29.351Z,1.84
2023-02-11T23:50:30.757Z,1.79
2023-02-11T23:54:32.351Z,1.76
2023-02-11T23:58:33.740Z,1.75
